sensor_id;sensor_type;location;lat;lon;timestamp;P1;durP1;ratioP1;P2;durP2;ratioP2
68938;SDS011;59064;45.294;11.816;2024-01-06T00:00:29;47.00;;;30.80;;
68938;SDS011;59064;45.294;11.816;2024-01-06T00:02:54;48.50;;;32.70;;
68938;SDS011;59064;45.294;11.816;2024-01-06T00:05:20;49.90;;;33.50;;
68938;SDS011;59064;45.294;11.816;2024-01-06T00:07:46;50.90;;;32.80;;
68938;SDS011;59064;45.294;11.816;2024-01-06T00:10:11;54.00;;;35.70;;
68938;SDS011;59064;45.294;11.816;2024-01-06T00:12:37;48.20;;;31.70;;
68938;SDS011;59064;45.294;11.816;2024-01-06T00:15:03;43.60;;;29.40;;
68938;SDS011;59064;45.294;11.816;2024-01-06T00:17:29;48.60;;;29.00;;
68938;SDS011;59064;45.294;11.816;2024-01-06T00:19:54;40.70;;;27.80;;
68938;SDS011;59064;45.294;11.816;2024-01-06T00:22:20;44.10;;;29.00;;
68938;SDS011;59064;45.294;11.816;2024-01-06T00:24:46;29.00;;;18.40;;
68938;SDS011;59064;45.294;11.816;2024-01-06T00:27:12;38.30;;;22.80;;
68938;SDS011;59064;45.294;11.816;2024-01-06T00:29:38;36.70;;;24.40;;
68938;SDS011;59064;45.294;11.816;2024-01-06T00:32:04;37.80;;;25.10;;
68938;SDS011;59064;45.294;11.816;2024-01-06T00:34:30;36.70;;;22.00;;
68938;SDS011;59064;45.294;11.816;2024-01-06T00:36:56;39.20;;;25.30;;
68938;SDS011;59064;45.294;11.816;2024-01-06T00:39:21;36.20;;;24.90;;
68938;SDS011;59064;45.294;11.816;2024-01-06T00:41:47;35.50;;;24.40;;
68938;SDS011;59064;45.294;11.816;2024-01-06T00:44:12;33.60;;;24.50;;
68938;SDS011;59064;45.294;11.816;2024-01-06T00:46:38;38.20;;;25.80;;
68938;SDS011;59064;45.294;11.816;2024-01-06T00:49:04;35.50;;;24.70;;
68938;SDS011;59064;45.294;11.816;2024-01-06T00:51:30;35.30;;;23.30;;
68938;SDS011;59064;45.294;11.816;2024-01-06T00:53:56;31.10;;;21.50;;
68938;SDS011;59064;45.294;11.816;2024-01-06T00:56:22;29.60;;;21.40;;
68938;SDS011;59064;45.294;11.816;2024-01-06T00:58:47;29.10;;;19.30;;
68938;SDS011;59064;45.294;11.816;2024-01-06T01:01:13;29.50;;;19.20;;
68938;SDS011;59064;45.294;11.816;2024-01-06T01:03:38;24.70;;;17.20;;
68938;SDS011;59064;45.294;11.816;2024-01-06T01:06:04;21.20;;;15.60;;
68938;SDS011;59064;45.294;11.816;2024-01-06T01:08:29;17.30;;;12.50;;
68938;SDS011;59064;45.294;11.816;2024-01-06T01:10:55;15.00;;;9.10;;
68938;SDS011;59064;45.294;11.816;2024-01-06T01:13:22;14.30;;;9.90;;
68938;SDS011;59064;45.294;11.816;2024-01-06T01:15:48;12.10;;;8.20;;
68938;SDS011;59064;45.294;11.816;2024-01-06T01:18:14;10.70;;;7.70;;
68938;SDS011;59064;45.294;11.816;2024-01-06T01:20:39;11.40;;;7.70;;
68938;SDS011;59064;45.294;11.816;2024-01-06T01:23:07;9.40;;;6.70;;
68938;SDS011;59064;45.294;11.816;2024-01-06T01:25:32;9.50;;;5.40;;
68938;SDS011;59064;45.294;11.816;2024-01-06T01:27:58;9.20;;;5.70;;
68938;SDS011;59064;45.294;11.816;2024-01-06T01:30:23;8.00;;;5.40;;
68938;SDS011;59064;45.294;11.816;2024-01-06T01:32:49;8.80;;;5.40;;
68938;SDS011;59064;45.294;11.816;2024-01-06T01:35:14;7.80;;;4.70;;
68938;SDS011;59064;45.294;11.816;2024-01-06T01:37:40;9.30;;;6.30;;
68938;SDS011;59064;45.294;11.816;2024-01-06T01:40:06;8.50;;;5.80;;
68938;SDS011;59064;45.294;11.816;2024-01-06T01:42:32;9.40;;;5.70;;
68938;SDS011;59064;45.294;11.816;2024-01-06T01:44:58;6.90;;;4.50;;
68938;SDS011;59064;45.294;11.816;2024-01-06T01:47:23;6.60;;;4.20;;
68938;SDS011;59064;45.294;11.816;2024-01-06T01:49:49;6.90;;;4.30;;
68938;SDS011;59064;45.294;11.816;2024-01-06T01:52:15;5.90;;;3.60;;
68938;SDS011;59064;45.294;11.816;2024-01-06T01:54:41;6.80;;;4.10;;
68938;SDS011;59064;45.294;11.816;2024-01-06T01:57:07;4.70;;;3.30;;
68938;SDS011;59064;45.294;11.816;2024-01-06T01:59:33;6.40;;;3.70;;
68938;SDS011;59064;45.294;11.816;2024-01-06T02:01:59;6.30;;;4.10;;
68938;SDS011;59064;45.294;11.816;2024-01-06T02:04:26;6.50;;;3.30;;
68938;SDS011;59064;45.294;11.816;2024-01-06T02:06:51;7.10;;;3.50;;
68938;SDS011;59064;45.294;11.816;2024-01-06T02:09:17;7.10;;;4.30;;
68938;SDS011;59064;45.294;11.816;2024-01-06T02:11:42;6.20;;;3.50;;
68938;SDS011;59064;45.294;11.816;2024-01-06T02:14:08;5.00;;;3.10;;
68938;SDS011;59064;45.294;11.816;2024-01-06T02:16:33;6.10;;;3.90;;
68938;SDS011;59064;45.294;11.816;2024-01-06T02:18:59;6.50;;;4.00;;
68938;SDS011;59064;45.294;11.816;2024-01-06T02:21:25;5.80;;;3.50;;
68938;SDS011;59064;45.294;11.816;2024-01-06T02:23:53;5.80;;;3.80;;
68938;SDS011;59064;45.294;11.816;2024-01-06T02:26:18;6.30;;;3.80;;
68938;SDS011;59064;45.294;11.816;2024-01-06T02:28:44;7.10;;;3.90;;
68938;SDS011;59064;45.294;11.816;2024-01-06T02:31:13;4.40;;;2.90;;
68938;SDS011;59064;45.294;11.816;2024-01-06T02:33:39;6.90;;;3.80;;
68938;SDS011;59064;45.294;11.816;2024-01-06T02:36:05;5.80;;;3.90;;
68938;SDS011;59064;45.294;11.816;2024-01-06T02:38:31;5.50;;;3.10;;
68938;SDS011;59064;45.294;11.816;2024-01-06T02:40:56;4.20;;;2.80;;
68938;SDS011;59064;45.294;11.816;2024-01-06T02:43:22;6.90;;;3.60;;
68938;SDS011;59064;45.294;11.816;2024-01-06T02:45:48;5.40;;;3.70;;
68938;SDS011;59064;45.294;11.816;2024-01-06T02:48:14;6.90;;;4.10;;
68938;SDS011;59064;45.294;11.816;2024-01-06T02:50:40;7.00;;;4.20;;
68938;SDS011;59064;45.294;11.816;2024-01-06T02:53:05;5.90;;;3.90;;
68938;SDS011;59064;45.294;11.816;2024-01-06T02:55:31;6.20;;;4.30;;
68938;SDS011;59064;45.294;11.816;2024-01-06T02:57:57;6.10;;;3.60;;
68938;SDS011;59064;45.294;11.816;2024-01-06T03:00:22;5.60;;;3.60;;
68938;SDS011;59064;45.294;11.816;2024-01-06T03:02:48;5.90;;;4.00;;
68938;SDS011;59064;45.294;11.816;2024-01-06T03:05:13;6.10;;;3.40;;
68938;SDS011;59064;45.294;11.816;2024-01-06T03:07:39;5.00;;;3.40;;
68938;SDS011;59064;45.294;11.816;2024-01-06T03:10:04;5.90;;;2.90;;
68938;SDS011;59064;45.294;11.816;2024-01-06T03:12:30;6.00;;;3.80;;
68938;SDS011;59064;45.294;11.816;2024-01-06T03:14:55;7.30;;;3.90;;
68938;SDS011;59064;45.294;11.816;2024-01-06T03:17:21;5.80;;;3.90;;
68938;SDS011;59064;45.294;11.816;2024-01-06T03:19:46;4.70;;;3.00;;
68938;SDS011;59064;45.294;11.816;2024-01-06T03:22:12;5.50;;;3.50;;
68938;SDS011;59064;45.294;11.816;2024-01-06T03:24:37;6.10;;;3.60;;
68938;SDS011;59064;45.294;11.816;2024-01-06T03:27:05;4.80;;;3.10;;
68938;SDS011;59064;45.294;11.816;2024-01-06T03:29:30;6.30;;;3.10;;
68938;SDS011;59064;45.294;11.816;2024-01-06T03:31:55;5.30;;;3.70;;
68938;SDS011;59064;45.294;11.816;2024-01-06T03:34:21;6.50;;;3.80;;
68938;SDS011;59064;45.294;11.816;2024-01-06T03:36:46;6.10;;;4.10;;
68938;SDS011;59064;45.294;11.816;2024-01-06T03:39:12;6.20;;;4.00;;
68938;SDS011;59064;45.294;11.816;2024-01-06T03:41:40;5.40;;;3.40;;
68938;SDS011;59064;45.294;11.816;2024-01-06T03:44:05;6.20;;;3.80;;
68938;SDS011;59064;45.294;11.816;2024-01-06T03:46:32;6.40;;;3.90;;
68938;SDS011;59064;45.294;11.816;2024-01-06T03:48:58;6.10;;;4.00;;
68938;SDS011;59064;45.294;11.816;2024-01-06T03:51:23;6.30;;;4.60;;
68938;SDS011;59064;45.294;11.816;2024-01-06T03:53:49;7.50;;;4.90;;
68938;SDS011;59064;45.294;11.816;2024-01-06T03:56:14;5.20;;;3.00;;
68938;SDS011;59064;45.294;11.816;2024-01-06T03:58:40;6.50;;;4.20;;
68938;SDS011;59064;45.294;11.816;2024-01-06T04:01:05;7.30;;;4.40;;
68938;SDS011;59064;45.294;11.816;2024-01-06T04:03:32;6.20;;;3.70;;
68938;SDS011;59064;45.294;11.816;2024-01-06T04:05:58;7.20;;;4.30;;
68938;SDS011;59064;45.294;11.816;2024-01-06T04:08:23;7.00;;;4.70;;
68938;SDS011;59064;45.294;11.816;2024-01-06T04:10:49;7.60;;;4.60;;
68938;SDS011;59064;45.294;11.816;2024-01-06T04:13:15;7.70;;;4.70;;
68938;SDS011;59064;45.294;11.816;2024-01-06T04:15:41;6.60;;;4.40;;
68938;SDS011;59064;45.294;11.816;2024-01-06T04:18:06;6.50;;;4.70;;
68938;SDS011;59064;45.294;11.816;2024-01-06T04:20:32;6.90;;;4.50;;
68938;SDS011;59064;45.294;11.816;2024-01-06T04:22:58;7.10;;;4.20;;
68938;SDS011;59064;45.294;11.816;2024-01-06T04:25:24;6.00;;;4.30;;
68938;SDS011;59064;45.294;11.816;2024-01-06T04:27:50;6.30;;;4.20;;
68938;SDS011;59064;45.294;11.816;2024-01-06T04:30:16;7.00;;;4.40;;
68938;SDS011;59064;45.294;11.816;2024-01-06T04:32:42;6.30;;;4.00;;
68938;SDS011;59064;45.294;11.816;2024-01-06T04:35:07;5.80;;;4.20;;
68938;SDS011;59064;45.294;11.816;2024-01-06T04:37:34;6.10;;;3.80;;
68938;SDS011;59064;45.294;11.816;2024-01-06T04:40:00;6.00;;;3.50;;
68938;SDS011;59064;45.294;11.816;2024-01-06T04:42:25;6.60;;;4.30;;
68938;SDS011;59064;45.294;11.816;2024-01-06T04:44:51;5.90;;;3.80;;
68938;SDS011;59064;45.294;11.816;2024-01-06T04:47:17;7.10;;;4.70;;
68938;SDS011;59064;45.294;11.816;2024-01-06T04:49:43;5.70;;;3.70;;
68938;SDS011;59064;45.294;11.816;2024-01-06T04:52:09;6.00;;;3.90;;
68938;SDS011;59064;45.294;11.816;2024-01-06T04:54:35;6.40;;;4.10;;
68938;SDS011;59064;45.294;11.816;2024-01-06T04:57:00;6.80;;;4.40;;
68938;SDS011;59064;45.294;11.816;2024-01-06T04:59:26;5.70;;;4.00;;
68938;SDS011;59064;45.294;11.816;2024-01-06T05:01:51;6.10;;;3.80;;
68938;SDS011;59064;45.294;11.816;2024-01-06T05:04:19;7.10;;;4.50;;
68938;SDS011;59064;45.294;11.816;2024-01-06T05:06:45;6.90;;;4.80;;
68938;SDS011;59064;45.294;11.816;2024-01-06T05:09:10;5.80;;;3.80;;
68938;SDS011;59064;45.294;11.816;2024-01-06T05:11:36;5.40;;;3.30;;
68938;SDS011;59064;45.294;11.816;2024-01-06T05:14:02;6.30;;;3.50;;
68938;SDS011;59064;45.294;11.816;2024-01-06T05:16:28;6.20;;;3.80;;
68938;SDS011;59064;45.294;11.816;2024-01-06T05:18:54;5.50;;;3.50;;
68938;SDS011;59064;45.294;11.816;2024-01-06T05:21:22;6.00;;;3.80;;
68938;SDS011;59064;45.294;11.816;2024-01-06T05:23:49;6.50;;;4.10;;
68938;SDS011;59064;45.294;11.816;2024-01-06T05:26:14;6.30;;;4.00;;
68938;SDS011;59064;45.294;11.816;2024-01-06T05:28:40;7.50;;;4.70;;
68938;SDS011;59064;45.294;11.816;2024-01-06T05:31:06;7.30;;;4.40;;
68938;SDS011;59064;45.294;11.816;2024-01-06T05:33:33;8.10;;;5.10;;
68938;SDS011;59064;45.294;11.816;2024-01-06T05:35:58;7.80;;;5.30;;
68938;SDS011;59064;45.294;11.816;2024-01-06T05:38:24;6.80;;;4.70;;
68938;SDS011;59064;45.294;11.816;2024-01-06T05:40:50;8.20;;;5.10;;
68938;SDS011;59064;45.294;11.816;2024-01-06T05:43:15;11.30;;;7.10;;
68938;SDS011;59064;45.294;11.816;2024-01-06T05:45:41;8.70;;;6.00;;
68938;SDS011;59064;45.294;11.816;2024-01-06T05:48:10;8.90;;;5.20;;
68938;SDS011;59064;45.294;11.816;2024-01-06T05:50:39;7.40;;;5.00;;
68938;SDS011;59064;45.294;11.816;2024-01-06T05:53:06;8.20;;;5.70;;
68938;SDS011;59064;45.294;11.816;2024-01-06T05:55:33;7.90;;;4.80;;
68938;SDS011;59064;45.294;11.816;2024-01-06T05:57:59;8.50;;;5.80;;
68938;SDS011;59064;45.294;11.816;2024-01-06T06:00:26;9.50;;;5.60;;
68938;SDS011;59064;45.294;11.816;2024-01-06T06:02:52;9.20;;;6.10;;
68938;SDS011;59064;45.294;11.816;2024-01-06T06:05:18;8.80;;;6.10;;
68938;SDS011;59064;45.294;11.816;2024-01-06T06:07:45;10.10;;;5.80;;
68938;SDS011;59064;45.294;11.816;2024-01-06T06:10:11;8.50;;;5.80;;
68938;SDS011;59064;45.294;11.816;2024-01-06T06:12:37;8.90;;;5.60;;
68938;SDS011;59064;45.294;11.816;2024-01-06T06:15:04;10.10;;;6.00;;
68938;SDS011;59064;45.294;11.816;2024-01-06T06:17:31;9.10;;;5.80;;
68938;SDS011;59064;45.294;11.816;2024-01-06T06:19:57;8.20;;;5.40;;
68938;SDS011;59064;45.294;11.816;2024-01-06T06:22:24;7.80;;;5.60;;
68938;SDS011;59064;45.294;11.816;2024-01-06T06:24:52;7.50;;;4.60;;
68938;SDS011;59064;45.294;11.816;2024-01-06T06:27:18;9.70;;;5.20;;
68938;SDS011;59064;45.294;11.816;2024-01-06T06:29:43;7.10;;;4.80;;
68938;SDS011;59064;45.294;11.816;2024-01-06T06:32:09;7.30;;;4.50;;
68938;SDS011;59064;45.294;11.816;2024-01-06T06:34:34;8.30;;;4.90;;
68938;SDS011;59064;45.294;11.816;2024-01-06T06:37:00;7.20;;;4.00;;
68938;SDS011;59064;45.294;11.816;2024-01-06T06:39:25;8.20;;;4.90;;
68938;SDS011;59064;45.294;11.816;2024-01-06T06:41:52;6.30;;;4.20;;
68938;SDS011;59064;45.294;11.816;2024-01-06T06:44:17;5.30;;;3.50;;
68938;SDS011;59064;45.294;11.816;2024-01-06T06:46:43;5.10;;;3.10;;
68938;SDS011;59064;45.294;11.816;2024-01-06T06:49:08;6.40;;;4.10;;
68938;SDS011;59064;45.294;11.816;2024-01-06T06:51:34;6.30;;;3.60;;
68938;SDS011;59064;45.294;11.816;2024-01-06T06:54:00;5.80;;;3.60;;
68938;SDS011;59064;45.294;11.816;2024-01-06T06:56:25;6.10;;;4.50;;
68938;SDS011;59064;45.294;11.816;2024-01-06T06:58:51;5.70;;;3.60;;
68938;SDS011;59064;45.294;11.816;2024-01-06T07:01:17;5.70;;;4.10;;
68938;SDS011;59064;45.294;11.816;2024-01-06T07:03:43;6.30;;;4.40;;
68938;SDS011;59064;45.294;11.816;2024-01-06T07:06:11;7.20;;;4.40;;
68938;SDS011;59064;45.294;11.816;2024-01-06T07:08:38;6.80;;;4.80;;
68938;SDS011;59064;45.294;11.816;2024-01-06T07:11:04;6.20;;;4.70;;
68938;SDS011;59064;45.294;11.816;2024-01-06T07:13:29;7.60;;;5.10;;
68938;SDS011;59064;45.294;11.816;2024-01-06T07:15:55;5.50;;;3.80;;
68938;SDS011;59064;45.294;11.816;2024-01-06T07:18:20;6.40;;;4.50;;
68938;SDS011;59064;45.294;11.816;2024-01-06T07:20:48;7.30;;;5.10;;
68938;SDS011;59064;45.294;11.816;2024-01-06T07:23:14;7.30;;;4.60;;
68938;SDS011;59064;45.294;11.816;2024-01-06T07:25:39;7.40;;;4.60;;
68938;SDS011;59064;45.294;11.816;2024-01-06T07:28:05;6.70;;;5.20;;
68938;SDS011;59064;45.294;11.816;2024-01-06T07:30:30;7.00;;;5.00;;
68938;SDS011;59064;45.294;11.816;2024-01-06T07:32:56;7.20;;;5.50;;
68938;SDS011;59064;45.294;11.816;2024-01-06T07:35:22;7.30;;;5.60;;
68938;SDS011;59064;45.294;11.816;2024-01-06T07:37:47;5.80;;;4.70;;
68938;SDS011;59064;45.294;11.816;2024-01-06T07:40:13;6.30;;;4.70;;
68938;SDS011;59064;45.294;11.816;2024-01-06T07:42:42;6.30;;;4.60;;
68938;SDS011;59064;45.294;11.816;2024-01-06T07:45:08;7.40;;;5.30;;
68938;SDS011;59064;45.294;11.816;2024-01-06T07:47:34;6.40;;;4.50;;
68938;SDS011;59064;45.294;11.816;2024-01-06T07:50:00;7.20;;;5.50;;
68938;SDS011;59064;45.294;11.816;2024-01-06T07:52:25;5.40;;;3.60;;
68938;SDS011;59064;45.294;11.816;2024-01-06T07:54:51;5.60;;;3.60;;
68938;SDS011;59064;45.294;11.816;2024-01-06T07:57:16;5.50;;;4.10;;
68938;SDS011;59064;45.294;11.816;2024-01-06T07:59:42;7.20;;;5.20;;
68938;SDS011;59064;45.294;11.816;2024-01-06T08:02:07;6.40;;;5.10;;
68938;SDS011;59064;45.294;11.816;2024-01-06T08:04:34;5.70;;;3.90;;
68938;SDS011;59064;45.294;11.816;2024-01-06T08:06:59;7.20;;;4.70;;
68938;SDS011;59064;45.294;11.816;2024-01-06T08:09:25;6.90;;;5.30;;
68938;SDS011;59064;45.294;11.816;2024-01-06T08:11:50;7.00;;;4.60;;
68938;SDS011;59064;45.294;11.816;2024-01-06T08:14:16;6.10;;;4.50;;
68938;SDS011;59064;45.294;11.816;2024-01-06T08:16:42;6.50;;;5.00;;
68938;SDS011;59064;45.294;11.816;2024-01-06T08:19:09;6.50;;;4.30;;
68938;SDS011;59064;45.294;11.816;2024-01-06T08:21:35;6.60;;;4.90;;
68938;SDS011;59064;45.294;11.816;2024-01-06T08:24:00;6.40;;;4.70;;
68938;SDS011;59064;45.294;11.816;2024-01-06T08:26:26;6.40;;;4.50;;
68938;SDS011;59064;45.294;11.816;2024-01-06T08:28:51;6.60;;;4.60;;
68938;SDS011;59064;45.294;11.816;2024-01-06T08:31:17;6.90;;;5.10;;
68938;SDS011;59064;45.294;11.816;2024-01-06T08:33:43;7.20;;;5.20;;
68938;SDS011;59064;45.294;11.816;2024-01-06T08:36:08;7.40;;;4.70;;
68938;SDS011;59064;45.294;11.816;2024-01-06T08:38:34;7.50;;;5.80;;
68938;SDS011;59064;45.294;11.816;2024-01-06T08:41:00;7.80;;;5.40;;
68938;SDS011;59064;45.294;11.816;2024-01-06T08:43:27;7.90;;;5.10;;
68938;SDS011;59064;45.294;11.816;2024-01-06T08:45:52;6.90;;;4.50;;
68938;SDS011;59064;45.294;11.816;2024-01-06T08:48:18;8.50;;;5.50;;
68938;SDS011;59064;45.294;11.816;2024-01-06T08:50:44;10.10;;;6.10;;
68938;SDS011;59064;45.294;11.816;2024-01-06T08:53:11;9.00;;;5.90;;
68938;SDS011;59064;45.294;11.816;2024-01-06T08:55:37;7.90;;;5.30;;
68938;SDS011;59064;45.294;11.816;2024-01-06T08:58:02;8.40;;;6.20;;
68938;SDS011;59064;45.294;11.816;2024-01-06T09:00:28;7.40;;;5.70;;
68938;SDS011;59064;45.294;11.816;2024-01-06T09:02:54;9.60;;;6.00;;
68938;SDS011;59064;45.294;11.816;2024-01-06T09:05:19;8.80;;;6.00;;
68938;SDS011;59064;45.294;11.816;2024-01-06T09:07:45;9.90;;;6.70;;
68938;SDS011;59064;45.294;11.816;2024-01-06T09:10:18;9.50;;;6.20;;
68938;SDS011;59064;45.294;11.816;2024-01-06T09:12:44;9.10;;;6.40;;
68938;SDS011;59064;45.294;11.816;2024-01-06T09:15:10;10.00;;;6.90;;
68938;SDS011;59064;45.294;11.816;2024-01-06T09:17:36;10.10;;;6.50;;
68938;SDS011;59064;45.294;11.816;2024-01-06T09:20:01;10.50;;;7.40;;
68938;SDS011;59064;45.294;11.816;2024-01-06T09:22:28;10.00;;;7.30;;
68938;SDS011;59064;45.294;11.816;2024-01-06T09:24:54;11.10;;;7.80;;
68938;SDS011;59064;45.294;11.816;2024-01-06T09:27:20;12.60;;;8.50;;
68938;SDS011;59064;45.294;11.816;2024-01-06T09:29:45;13.60;;;9.20;;
68938;SDS011;59064;45.294;11.816;2024-01-06T09:32:11;12.10;;;8.40;;
68938;SDS011;59064;45.294;11.816;2024-01-06T09:34:38;11.90;;;8.00;;
68938;SDS011;59064;45.294;11.816;2024-01-06T09:37:03;14.30;;;8.40;;
68938;SDS011;59064;45.294;11.816;2024-01-06T09:39:29;12.20;;;8.50;;
68938;SDS011;59064;45.294;11.816;2024-01-06T09:41:56;10.20;;;7.00;;
68938;SDS011;59064;45.294;11.816;2024-01-06T09:44:22;9.10;;;6.80;;
68938;SDS011;59064;45.294;11.816;2024-01-06T09:46:48;10.10;;;6.70;;
68938;SDS011;59064;45.294;11.816;2024-01-06T09:49:14;8.40;;;6.30;;
68938;SDS011;59064;45.294;11.816;2024-01-06T09:51:42;7.90;;;5.90;;
68938;SDS011;59064;45.294;11.816;2024-01-06T09:54:08;7.70;;;5.50;;
68938;SDS011;59064;45.294;11.816;2024-01-06T09:56:34;8.30;;;5.90;;
68938;SDS011;59064;45.294;11.816;2024-01-06T09:59:00;9.10;;;6.30;;
68938;SDS011;59064;45.294;11.816;2024-01-06T10:01:27;8.60;;;6.00;;
68938;SDS011;59064;45.294;11.816;2024-01-06T10:03:52;8.60;;;6.30;;
68938;SDS011;59064;45.294;11.816;2024-01-06T10:06:18;9.20;;;6.30;;
68938;SDS011;59064;45.294;11.816;2024-01-06T10:08:49;9.20;;;5.60;;
68938;SDS011;59064;45.294;11.816;2024-01-06T10:11:16;9.90;;;7.10;;
68938;SDS011;59064;45.294;11.816;2024-01-06T10:13:48;9.00;;;6.60;;
68938;SDS011;59064;45.294;11.816;2024-01-06T10:16:15;9.20;;;6.80;;
68938;SDS011;59064;45.294;11.816;2024-01-06T10:18:41;8.80;;;6.50;;
68938;SDS011;59064;45.294;11.816;2024-01-06T10:21:06;10.50;;;8.00;;
68938;SDS011;59064;45.294;11.816;2024-01-06T10:23:32;10.10;;;7.30;;
68938;SDS011;59064;45.294;11.816;2024-01-06T10:25:59;10.50;;;7.50;;
68938;SDS011;59064;45.294;11.816;2024-01-06T10:28:24;9.80;;;7.20;;
68938;SDS011;59064;45.294;11.816;2024-01-06T10:30:53;10.80;;;7.80;;
68938;SDS011;59064;45.294;11.816;2024-01-06T10:33:24;8.80;;;6.80;;
68938;SDS011;59064;45.294;11.816;2024-01-06T10:35:52;9.70;;;7.00;;
68938;SDS011;59064;45.294;11.816;2024-01-06T10:38:20;11.40;;;7.70;;
68938;SDS011;59064;45.294;11.816;2024-01-06T10:40:58;12.00;;;8.30;;
68938;SDS011;59064;45.294;11.816;2024-01-06T10:43:25;11.90;;;8.10;;
68938;SDS011;59064;45.294;11.816;2024-01-06T10:45:55;10.60;;;8.30;;
68938;SDS011;59064;45.294;11.816;2024-01-06T10:48:24;11.60;;;7.80;;
68938;SDS011;59064;45.294;11.816;2024-01-06T10:50:50;11.80;;;8.40;;
68938;SDS011;59064;45.294;11.816;2024-01-06T10:53:18;11.40;;;8.30;;
68938;SDS011;59064;45.294;11.816;2024-01-06T10:55:48;10.10;;;7.90;;
68938;SDS011;59064;45.294;11.816;2024-01-06T10:58:16;10.90;;;7.80;;
68938;SDS011;59064;45.294;11.816;2024-01-06T11:00:42;12.60;;;8.40;;
68938;SDS011;59064;45.294;11.816;2024-01-06T11:03:08;10.30;;;7.70;;
68938;SDS011;59064;45.294;11.816;2024-01-06T11:05:35;9.00;;;6.70;;
68938;SDS011;59064;45.294;11.816;2024-01-06T11:08:02;9.20;;;6.80;;
68938;SDS011;59064;45.294;11.816;2024-01-06T11:10:29;10.60;;;7.80;;
68938;SDS011;59064;45.294;11.816;2024-01-06T11:13:09;11.10;;;8.30;;
68938;SDS011;59064;45.294;11.816;2024-01-06T11:15:47;9.50;;;6.60;;
68938;SDS011;59064;45.294;11.816;2024-01-06T11:26:38;7.50;;;5.10;;
68938;SDS011;59064;45.294;11.816;2024-01-06T11:29:05;11.20;;;7.50;;
68938;SDS011;59064;45.294;11.816;2024-01-06T11:31:32;9.90;;;7.40;;
68938;SDS011;59064;45.294;11.816;2024-01-06T11:34:17;9.60;;;7.10;;
68938;SDS011;59064;45.294;11.816;2024-01-06T11:36:45;9.70;;;6.30;;
68938;SDS011;59064;45.294;11.816;2024-01-06T11:42:05;11.50;;;7.50;;
68938;SDS011;59064;45.294;11.816;2024-01-06T11:44:34;13.10;;;7.80;;
68938;SDS011;59064;45.294;11.816;2024-01-06T11:47:02;10.60;;;7.90;;
68938;SDS011;59064;45.294;11.816;2024-01-06T11:49:30;9.60;;;7.40;;
68938;SDS011;59064;45.294;11.816;2024-01-06T11:51:57;12.30;;;7.90;;
68938;SDS011;59064;45.294;11.816;2024-01-06T11:54:23;10.10;;;7.40;;
68938;SDS011;59064;45.294;11.816;2024-01-06T11:56:49;10.60;;;8.40;;
68938;SDS011;59064;45.294;11.816;2024-01-06T11:59:14;9.80;;;8.10;;
68938;SDS011;59064;45.294;11.816;2024-01-06T12:01:40;9.80;;;7.40;;
68938;SDS011;59064;45.294;11.816;2024-01-06T12:04:07;10.70;;;8.10;;
68938;SDS011;59064;45.294;11.816;2024-01-06T12:06:33;9.90;;;6.60;;
68938;SDS011;59064;45.294;11.816;2024-01-06T12:09:20;9.40;;;7.30;;
68938;SDS011;59064;45.294;11.816;2024-01-06T12:11:45;10.40;;;7.50;;
68938;SDS011;59064;45.294;11.816;2024-01-06T12:14:12;10.60;;;8.20;;
68938;SDS011;59064;45.294;11.816;2024-01-06T12:16:38;10.80;;;8.10;;
68938;SDS011;59064;45.294;11.816;2024-01-06T12:19:03;10.40;;;7.50;;
68938;SDS011;59064;45.294;11.816;2024-01-06T12:21:29;11.00;;;8.20;;
68938;SDS011;59064;45.294;11.816;2024-01-06T12:24:16;11.30;;;7.90;;
68938;SDS011;59064;45.294;11.816;2024-01-06T12:26:44;10.80;;;7.60;;
68938;SDS011;59064;45.294;11.816;2024-01-06T12:29:09;10.00;;;7.70;;
68938;SDS011;59064;45.294;11.816;2024-01-06T12:31:37;13.30;;;7.50;;
68938;SDS011;59064;45.294;11.816;2024-01-06T12:34:04;10.20;;;7.00;;
68938;SDS011;59064;45.294;11.816;2024-01-06T12:36:30;10.10;;;6.40;;
68938;SDS011;59064;45.294;11.816;2024-01-06T12:38:59;9.60;;;7.30;;
68938;SDS011;59064;45.294;11.816;2024-01-06T12:41:27;10.10;;;7.30;;
68938;SDS011;59064;45.294;11.816;2024-01-06T12:43:53;10.50;;;8.00;;
68938;SDS011;59064;45.294;11.816;2024-01-06T12:46:18;9.70;;;7.30;;
68938;SDS011;59064;45.294;11.816;2024-01-06T12:48:44;10.50;;;5.20;;
68938;SDS011;59064;45.294;11.816;2024-01-06T12:51:10;9.70;;;7.30;;
68938;SDS011;59064;45.294;11.816;2024-01-06T12:53:35;9.60;;;7.00;;
68938;SDS011;59064;45.294;11.816;2024-01-06T12:56:01;10.80;;;8.30;;
68938;SDS011;59064;45.294;11.816;2024-01-06T12:58:26;9.60;;;6.90;;
68938;SDS011;59064;45.294;11.816;2024-01-06T13:00:52;9.80;;;7.50;;
68938;SDS011;59064;45.294;11.816;2024-01-06T13:03:18;9.90;;;7.60;;
68938;SDS011;59064;45.294;11.816;2024-01-06T13:05:44;11.60;;;7.70;;
68938;SDS011;59064;45.294;11.816;2024-01-06T13:08:09;9.60;;;7.30;;
68938;SDS011;59064;45.294;11.816;2024-01-06T13:10:35;10.70;;;7.90;;
68938;SDS011;59064;45.294;11.816;2024-01-06T13:13:01;10.90;;;6.80;;
68938;SDS011;59064;45.294;11.816;2024-01-06T13:15:27;8.80;;;7.20;;
68938;SDS011;59064;45.294;11.816;2024-01-06T13:17:53;10.90;;;8.10;;
68938;SDS011;59064;45.294;11.816;2024-01-06T13:20:19;9.50;;;7.70;;
68938;SDS011;59064;45.294;11.816;2024-01-06T13:22:44;10.20;;;7.20;;
68938;SDS011;59064;45.294;11.816;2024-01-06T13:25:10;9.20;;;6.80;;
68938;SDS011;59064;45.294;11.816;2024-01-06T13:27:36;7.60;;;5.20;;
68938;SDS011;59064;45.294;11.816;2024-01-06T13:30:03;8.80;;;6.60;;
68938;SDS011;59064;45.294;11.816;2024-01-06T13:32:29;8.80;;;5.90;;
68938;SDS011;59064;45.294;11.816;2024-01-06T13:34:55;10.70;;;6.50;;
68938;SDS011;59064;45.294;11.816;2024-01-06T13:37:27;7.70;;;5.60;;
68938;SDS011;59064;45.294;11.816;2024-01-06T13:39:53;8.40;;;5.80;;
68938;SDS011;59064;45.294;11.816;2024-01-06T13:42:19;8.10;;;6.00;;
68938;SDS011;59064;45.294;11.816;2024-01-06T13:44:47;7.50;;;5.40;;
68938;SDS011;59064;45.294;11.816;2024-01-06T13:47:13;9.20;;;6.20;;
68938;SDS011;59064;45.294;11.816;2024-01-06T13:49:39;9.60;;;7.10;;
68938;SDS011;59064;45.294;11.816;2024-01-06T13:52:05;9.40;;;6.40;;
68938;SDS011;59064;45.294;11.816;2024-01-06T13:54:35;8.70;;;5.90;;
68938;SDS011;59064;45.294;11.816;2024-01-06T13:57:01;9.00;;;6.50;;
68938;SDS011;59064;45.294;11.816;2024-01-06T13:59:27;9.80;;;6.60;;
68938;SDS011;59064;45.294;11.816;2024-01-06T14:01:53;8.10;;;5.70;;
68938;SDS011;59064;45.294;11.816;2024-01-06T14:04:19;8.50;;;6.40;;
68938;SDS011;59064;45.294;11.816;2024-01-06T14:06:45;10.00;;;6.60;;
68938;SDS011;59064;45.294;11.816;2024-01-06T14:09:13;9.40;;;6.60;;
68938;SDS011;59064;45.294;11.816;2024-01-06T14:11:39;9.30;;;6.10;;
68938;SDS011;59064;45.294;11.816;2024-01-06T14:14:04;8.10;;;6.00;;
68938;SDS011;59064;45.294;11.816;2024-01-06T14:16:30;7.90;;;5.70;;
68938;SDS011;59064;45.294;11.816;2024-01-06T14:18:56;9.90;;;6.30;;
68938;SDS011;59064;45.294;11.816;2024-01-06T14:21:22;8.30;;;5.60;;
68938;SDS011;59064;45.294;11.816;2024-01-06T14:23:48;7.40;;;5.90;;
68938;SDS011;59064;45.294;11.816;2024-01-06T14:26:18;7.90;;;5.70;;
68938;SDS011;59064;45.294;11.816;2024-01-06T14:28:46;7.60;;;4.90;;
68938;SDS011;59064;45.294;11.816;2024-01-06T14:31:12;6.50;;;4.70;;
68938;SDS011;59064;45.294;11.816;2024-01-06T14:33:38;7.50;;;5.30;;
68938;SDS011;59064;45.294;11.816;2024-01-06T14:36:03;7.30;;;5.40;;